sensor_id;sensor_type;location;lat;lon;timestamp;P1;durP1;ratioP1;P2;durP2;ratioP2
66425;SDS011;53237;46.158;14.604;2024-03-08T00:00:50;1.40;;;1.30;;
66425;SDS011;53237;46.158;14.604;2024-03-08T00:03:17;2.00;;;1.52;;
66425;SDS011;53237;46.158;14.604;2024-03-08T00:05:43;1.75;;;1.33;;
66425;SDS011;53237;46.158;14.604;2024-03-08T00:08:09;2.10;;;1.52;;
66425;SDS011;53237;46.158;14.604;2024-03-08T00:10:35;3.38;;;1.73;;
66425;SDS011;53237;46.158;14.604;2024-03-08T00:13:01;1.55;;;1.45;;
66425;SDS011;53237;46.158;14.604;2024-03-08T00:15:29;2.70;;;1.55;;
66425;SDS011;53237;46.158;14.604;2024-03-08T00:17:57;3.40;;;1.80;;
66425;SDS011;53237;46.158;14.604;2024-03-08T00:20:23;2.05;;;1.58;;
66425;SDS011;53237;46.158;14.604;2024-03-08T00:22:49;2.38;;;1.50;;
66425;SDS011;53237;46.158;14.604;2024-03-08T00:25:16;2.28;;;1.50;;
66425;SDS011;53237;46.158;14.604;2024-03-08T00:27:43;2.60;;;1.48;;
66425;SDS011;53237;46.158;14.604;2024-03-08T00:30:09;1.67;;;1.40;;
66425;SDS011;53237;46.158;14.604;2024-03-08T00:32:38;2.30;;;1.60;;
66425;SDS011;53237;46.158;14.604;2024-03-08T00:35:04;2.70;;;1.58;;
66425;SDS011;53237;46.158;14.604;2024-03-08T00:37:32;2.58;;;1.30;;
66425;SDS011;53237;46.158;14.604;2024-03-08T00:39:59;1.73;;;1.50;;
66425;SDS011;53237;46.158;14.604;2024-03-08T00:42:25;2.13;;;1.50;;
66425;SDS011;53237;46.158;14.604;2024-03-08T00:44:51;2.00;;;1.50;;
66425;SDS011;53237;46.158;14.604;2024-03-08T00:47:17;2.08;;;1.30;;
66425;SDS011;53237;46.158;14.604;2024-03-08T00:49:43;1.35;;;1.23;;
66425;SDS011;53237;46.158;14.604;2024-03-08T00:52:10;2.15;;;1.38;;
66425;SDS011;53237;46.158;14.604;2024-03-08T00:54:36;1.77;;;1.20;;
66425;SDS011;53237;46.158;14.604;2024-03-08T00:57:02;1.92;;;1.40;;
66425;SDS011;53237;46.158;14.604;2024-03-08T00:59:28;2.10;;;1.45;;
66425;SDS011;53237;46.158;14.604;2024-03-08T01:01:57;2.35;;;1.30;;
66425;SDS011;53237;46.158;14.604;2024-03-08T01:04:24;1.30;;;1.20;;
66425;SDS011;53237;46.158;14.604;2024-03-08T01:06:50;3.35;;;1.60;;
66425;SDS011;53237;46.158;14.604;2024-03-08T01:09:16;2.13;;;1.45;;
66425;SDS011;53237;46.158;14.604;2024-03-08T01:11:43;1.50;;;1.40;;
66425;SDS011;53237;46.158;14.604;2024-03-08T01:14:09;3.58;;;1.88;;
66425;SDS011;53237;46.158;14.604;2024-03-08T01:16:35;2.92;;;1.67;;
66425;SDS011;53237;46.158;14.604;2024-03-08T01:19:01;2.20;;;1.85;;
66425;SDS011;53237;46.158;14.604;2024-03-08T01:21:28;2.17;;;1.98;;
66425;SDS011;53237;46.158;14.604;2024-03-08T01:23:54;2.72;;;2.05;;
66425;SDS011;53237;46.158;14.604;2024-03-08T01:26:20;3.08;;;2.00;;
66425;SDS011;53237;46.158;14.604;2024-03-08T01:28:46;1.85;;;1.45;;
66425;SDS011;53237;46.158;14.604;2024-03-08T01:31:12;2.38;;;1.73;;
66425;SDS011;53237;46.158;14.604;2024-03-08T01:33:38;3.50;;;1.88;;
66425;SDS011;53237;46.158;14.604;2024-03-08T01:36:05;3.90;;;2.90;;
66425;SDS011;53237;46.158;14.604;2024-03-08T01:38:31;3.17;;;2.13;;
66425;SDS011;53237;46.158;14.604;2024-03-08T01:40:57;2.90;;;2.17;;
66425;SDS011;53237;46.158;14.604;2024-03-08T01:43:27;2.60;;;1.98;;
66425;SDS011;53237;46.158;14.604;2024-03-08T01:45:54;3.22;;;2.50;;
66425;SDS011;53237;46.158;14.604;2024-03-08T01:48:20;3.88;;;2.22;;
66425;SDS011;53237;46.158;14.604;2024-03-08T01:50:49;3.00;;;2.10;;
66425;SDS011;53237;46.158;14.604;2024-03-08T01:53:15;4.00;;;2.92;;
66425;SDS011;53237;46.158;14.604;2024-03-08T01:55:44;3.22;;;2.15;;
66425;SDS011;53237;46.158;14.604;2024-03-08T01:58:11;3.17;;;2.25;;
66425;SDS011;53237;46.158;14.604;2024-03-08T02:00:38;5.20;;;3.20;;
66425;SDS011;53237;46.158;14.604;2024-03-08T02:03:05;4.45;;;2.88;;
66425;SDS011;53237;46.158;14.604;2024-03-08T02:05:31;3.75;;;2.65;;
66425;SDS011;53237;46.158;14.604;2024-03-08T02:07:57;4.25;;;2.97;;
66425;SDS011;53237;46.158;14.604;2024-03-08T02:10:24;4.38;;;2.90;;
66425;SDS011;53237;46.158;14.604;2024-03-08T02:12:50;3.28;;;2.67;;
66425;SDS011;53237;46.158;14.604;2024-03-08T02:15:16;3.80;;;2.90;;
66425;SDS011;53237;46.158;14.604;2024-03-08T02:17:42;4.15;;;2.50;;
66425;SDS011;53237;46.158;14.604;2024-03-08T02:20:08;2.95;;;2.20;;
66425;SDS011;53237;46.158;14.604;2024-03-08T02:22:35;3.85;;;2.67;;
66425;SDS011;53237;46.158;14.604;2024-03-08T02:25:02;3.25;;;2.28;;
66425;SDS011;53237;46.158;14.604;2024-03-08T02:27:28;3.13;;;2.50;;
66425;SDS011;53237;46.158;14.604;2024-03-08T02:29:57;3.17;;;2.38;;
66425;SDS011;53237;46.158;14.604;2024-03-08T02:32:24;3.45;;;2.40;;
66425;SDS011;53237;46.158;14.604;2024-03-08T02:34:51;2.97;;;2.20;;
66425;SDS011;53237;46.158;14.604;2024-03-08T02:37:17;3.10;;;2.53;;
66425;SDS011;53237;46.158;14.604;2024-03-08T02:39:43;2.38;;;1.85;;
66425;SDS011;53237;46.158;14.604;2024-03-08T02:42:10;2.80;;;2.22;;
66425;SDS011;53237;46.158;14.604;2024-03-08T02:44:36;2.88;;;2.22;;
66425;SDS011;53237;46.158;14.604;2024-03-08T02:47:02;3.60;;;2.38;;
66425;SDS011;53237;46.158;14.604;2024-03-08T02:49:28;2.75;;;2.00;;
66425;SDS011;53237;46.158;14.604;2024-03-08T02:51:55;2.30;;;2.10;;
66425;SDS011;53237;46.158;14.604;2024-03-08T02:54:22;3.35;;;2.25;;
66425;SDS011;53237;46.158;14.604;2024-03-08T02:56:49;3.13;;;2.33;;
66425;SDS011;53237;46.158;14.604;2024-03-08T02:59:17;2.60;;;1.88;;
66425;SDS011;53237;46.158;14.604;2024-03-08T03:01:43;2.67;;;1.92;;
66425;SDS011;53237;46.158;14.604;2024-03-08T03:04:09;2.50;;;2.30;;
66425;SDS011;53237;46.158;14.604;2024-03-08T03:06:36;2.58;;;2.10;;
66425;SDS011;53237;46.158;14.604;2024-03-08T03:09:02;2.53;;;1.92;;
66425;SDS011;53237;46.158;14.604;2024-03-08T03:11:31;2.45;;;1.92;;
66425;SDS011;53237;46.158;14.604;2024-03-08T03:13:57;1.98;;;1.80;;
66425;SDS011;53237;46.158;14.604;2024-03-08T03:16:23;3.95;;;2.78;;
66425;SDS011;53237;46.158;14.604;2024-03-08T03:18:49;3.10;;;2.47;;
66425;SDS011;53237;46.158;14.604;2024-03-08T03:21:15;2.45;;;2.22;;
66425;SDS011;53237;46.158;14.604;2024-03-08T03:23:42;3.40;;;2.08;;
66425;SDS011;53237;46.158;14.604;2024-03-08T03:26:08;2.92;;;2.22;;
66425;SDS011;53237;46.158;14.604;2024-03-08T03:28:38;2.53;;;1.90;;
66425;SDS011;53237;46.158;14.604;2024-03-08T03:31:07;2.78;;;2.15;;
66425;SDS011;53237;46.158;14.604;2024-03-08T03:33:35;2.40;;;2.15;;
66425;SDS011;53237;46.158;14.604;2024-03-08T03:36:01;3.05;;;2.38;;
66425;SDS011;53237;46.158;14.604;2024-03-08T03:38:27;2.90;;;2.20;;
66425;SDS011;53237;46.158;14.604;2024-03-08T03:40:53;2.13;;;1.92;;
66425;SDS011;53237;46.158;14.604;2024-03-08T03:43:22;2.50;;;2.30;;
66425;SDS011;53237;46.158;14.604;2024-03-08T03:45:48;3.08;;;2.60;;
66425;SDS011;53237;46.158;14.604;2024-03-08T03:48:15;4.35;;;3.03;;
66425;SDS011;53237;46.158;14.604;2024-03-08T03:50:41;3.28;;;2.45;;
66425;SDS011;53237;46.158;14.604;2024-03-08T03:53:09;2.70;;;2.10;;
66425;SDS011;53237;46.158;14.604;2024-03-08T03:55:35;2.63;;;2.00;;
66425;SDS011;53237;46.158;14.604;2024-03-08T03:58:03;2.80;;;2.22;;
66425;SDS011;53237;46.158;14.604;2024-03-08T04:00:29;3.30;;;2.45;;
66425;SDS011;53237;46.158;14.604;2024-03-08T04:02:55;4.82;;;3.08;;
66425;SDS011;53237;46.158;14.604;2024-03-08T04:05:25;3.80;;;3.08;;
66425;SDS011;53237;46.158;14.604;2024-03-08T04:07:51;2.15;;;1.88;;
66425;SDS011;53237;46.158;14.604;2024-03-08T04:10:17;3.67;;;2.70;;
66425;SDS011;53237;46.158;14.604;2024-03-08T04:12:43;6.07;;;3.13;;
66425;SDS011;53237;46.158;14.604;2024-03-08T04:15:09;4.07;;;2.50;;
66425;SDS011;53237;46.158;14.604;2024-03-08T04:17:35;2.25;;;1.90;;
66425;SDS011;53237;46.158;14.604;2024-03-08T04:20:05;5.03;;;2.13;;
66425;SDS011;53237;46.158;14.604;2024-03-08T04:22:37;2.70;;;2.25;;
66425;SDS011;53237;46.158;14.604;2024-03-08T04:25:04;3.65;;;2.55;;
66425;SDS011;53237;46.158;14.604;2024-03-08T04:27:31;3.00;;;2.17;;
66425;SDS011;53237;46.158;14.604;2024-03-08T04:29:57;2.63;;;2.28;;
66425;SDS011;53237;46.158;14.604;2024-03-08T04:32:24;3.15;;;2.35;;
66425;SDS011;53237;46.158;14.604;2024-03-08T04:34:50;2.45;;;2.00;;
66425;SDS011;53237;46.158;14.604;2024-03-08T04:37:16;3.13;;;2.33;;
66425;SDS011;53237;46.158;14.604;2024-03-08T04:39:48;3.63;;;2.45;;
66425;SDS011;53237;46.158;14.604;2024-03-08T04:42:14;2.55;;;2.17;;
66425;SDS011;53237;46.158;14.604;2024-03-08T04:44:42;3.20;;;2.20;;
66425;SDS011;53237;46.158;14.604;2024-03-08T04:47:09;2.53;;;2.10;;
66425;SDS011;53237;46.158;14.604;2024-03-08T04:49:36;3.38;;;2.33;;
66425;SDS011;53237;46.158;14.604;2024-03-08T04:52:05;2.72;;;1.98;;
66425;SDS011;53237;46.158;14.604;2024-03-08T04:54:32;3.30;;;2.13;;
66425;SDS011;53237;46.158;14.604;2024-03-08T04:56:58;2.83;;;2.22;;
66425;SDS011;53237;46.158;14.604;2024-03-08T04:59:27;3.35;;;2.33;;
66425;SDS011;53237;46.158;14.604;2024-03-08T05:01:53;3.28;;;2.33;;
66425;SDS011;53237;46.158;14.604;2024-03-08T05:04:19;3.42;;;2.10;;
66425;SDS011;53237;46.158;14.604;2024-03-08T05:06:45;2.45;;;2.13;;
66425;SDS011;53237;46.158;14.604;2024-03-08T05:09:11;3.72;;;2.45;;
66425;SDS011;53237;46.158;14.604;2024-03-08T05:11:41;2.65;;;2.38;;
66425;SDS011;53237;46.158;14.604;2024-03-08T05:14:08;3.42;;;2.40;;
66425;SDS011;53237;46.158;14.604;2024-03-08T05:16:34;3.10;;;2.15;;
66425;SDS011;53237;46.158;14.604;2024-03-08T05:19:00;2.63;;;2.00;;
66425;SDS011;53237;46.158;14.604;2024-03-08T05:21:26;3.58;;;2.35;;
66425;SDS011;53237;46.158;14.604;2024-03-08T05:23:53;3.70;;;2.40;;
66425;SDS011;53237;46.158;14.604;2024-03-08T05:26:20;3.75;;;2.53;;
66425;SDS011;53237;46.158;14.604;2024-03-08T05:28:47;2.45;;;2.15;;
66425;SDS011;53237;46.158;14.604;2024-03-08T05:31:23;3.22;;;2.47;;
66425;SDS011;53237;46.158;14.604;2024-03-08T05:33:49;4.07;;;2.65;;
66425;SDS011;53237;46.158;14.604;2024-03-08T05:36:15;3.58;;;2.60;;
66425;SDS011;53237;46.158;14.604;2024-03-08T05:38:44;3.13;;;2.47;;
66425;SDS011;53237;46.158;14.604;2024-03-08T05:41:10;4.47;;;2.63;;
66425;SDS011;53237;46.158;14.604;2024-03-08T05:43:37;3.97;;;2.60;;
66425;SDS011;53237;46.158;14.604;2024-03-08T05:46:03;2.83;;;2.50;;
66425;SDS011;53237;46.158;14.604;2024-03-08T05:48:29;3.30;;;2.22;;
66425;SDS011;53237;46.158;14.604;2024-03-08T05:50:57;4.05;;;2.22;;
66425;SDS011;53237;46.158;14.604;2024-03-08T05:53:24;3.47;;;2.60;;
66425;SDS011;53237;46.158;14.604;2024-03-08T05:55:51;3.13;;;2.40;;
66425;SDS011;53237;46.158;14.604;2024-03-08T05:58:17;3.13;;;2.30;;
66425;SDS011;53237;46.158;14.604;2024-03-08T06:00:43;3.00;;;2.47;;
66425;SDS011;53237;46.158;14.604;2024-03-08T06:03:11;3.53;;;2.60;;
66425;SDS011;53237;46.158;14.604;2024-03-08T06:05:37;3.60;;;2.55;;
66425;SDS011;53237;46.158;14.604;2024-03-08T06:08:07;3.20;;;2.33;;
66425;SDS011;53237;46.158;14.604;2024-03-08T06:10:33;3.03;;;2.45;;
66425;SDS011;53237;46.158;14.604;2024-03-08T06:12:59;3.45;;;2.50;;
66425;SDS011;53237;46.158;14.604;2024-03-08T06:15:26;5.75;;;2.70;;
66425;SDS011;53237;46.158;14.604;2024-03-08T06:17:52;4.80;;;2.67;;
66425;SDS011;53237;46.158;14.604;2024-03-08T06:20:18;3.53;;;2.75;;
66425;SDS011;53237;46.158;14.604;2024-03-08T06:22:44;3.05;;;2.60;;
66425;SDS011;53237;46.158;14.604;2024-03-08T06:25:11;3.70;;;2.50;;
66425;SDS011;53237;46.158;14.604;2024-03-08T06:27:41;3.75;;;2.85;;
66425;SDS011;53237;46.158;14.604;2024-03-08T06:30:11;4.25;;;2.83;;
66425;SDS011;53237;46.158;14.604;2024-03-08T06:32:37;3.13;;;2.78;;
66425;SDS011;53237;46.158;14.604;2024-03-08T06:35:04;4.60;;;2.83;;
66425;SDS011;53237;46.158;14.604;2024-03-08T06:37:34;4.25;;;3.28;;
66425;SDS011;53237;46.158;14.604;2024-03-08T06:40:00;4.85;;;3.33;;
66425;SDS011;53237;46.158;14.604;2024-03-08T06:42:28;4.45;;;3.45;;
66425;SDS011;53237;46.158;14.604;2024-03-08T06:44:54;4.97;;;3.42;;
66425;SDS011;53237;46.158;14.604;2024-03-08T06:47:25;4.05;;;3.10;;
66425;SDS011;53237;46.158;14.604;2024-03-08T06:49:51;4.80;;;3.65;;
66425;SDS011;53237;46.158;14.604;2024-03-08T06:52:17;6.43;;;3.72;;
66425;SDS011;53237;46.158;14.604;2024-03-08T06:54:43;5.28;;;3.63;;
66425;SDS011;53237;46.158;14.604;2024-03-08T06:57:09;3.97;;;2.95;;
66425;SDS011;53237;46.158;14.604;2024-03-08T06:59:35;5.07;;;3.50;;
66425;SDS011;53237;46.158;14.604;2024-03-08T07:02:02;4.72;;;3.85;;
66425;SDS011;53237;46.158;14.604;2024-03-08T07:04:29;5.88;;;3.53;;
66425;SDS011;53237;46.158;14.604;2024-03-08T07:06:56;6.75;;;4.22;;
66425;SDS011;53237;46.158;14.604;2024-03-08T07:09:22;8.43;;;4.60;;
66425;SDS011;53237;46.158;14.604;2024-03-08T07:11:49;5.90;;;4.20;;
66425;SDS011;53237;46.158;14.604;2024-03-08T07:14:20;5.45;;;3.60;;
66425;SDS011;53237;46.158;14.604;2024-03-08T07:16:46;7.15;;;4.32;;
66425;SDS011;53237;46.158;14.604;2024-03-08T07:19:12;5.75;;;3.90;;
66425;SDS011;53237;46.158;14.604;2024-03-08T07:21:39;5.88;;;4.30;;
66425;SDS011;53237;46.158;14.604;2024-03-08T07:24:05;5.13;;;3.90;;
66425;SDS011;53237;46.158;14.604;2024-03-08T07:26:54;6.13;;;4.43;;
66425;SDS011;53237;46.158;14.604;2024-03-08T07:29:20;5.75;;;3.95;;
66425;SDS011;53237;46.158;14.604;2024-03-08T07:31:46;8.10;;;4.78;;
66425;SDS011;53237;46.158;14.604;2024-03-08T07:34:27;7.57;;;4.78;;
66425;SDS011;53237;46.158;14.604;2024-03-08T07:36:56;7.70;;;4.88;;
66425;SDS011;53237;46.158;14.604;2024-03-08T07:39:23;7.18;;;5.05;;
66425;SDS011;53237;46.158;14.604;2024-03-08T07:41:49;7.25;;;5.18;;
66425;SDS011;53237;46.158;14.604;2024-03-08T07:44:17;11.20;;;6.32;;
66425;SDS011;53237;46.158;14.604;2024-03-08T07:46:43;7.18;;;5.28;;
66425;SDS011;53237;46.158;14.604;2024-03-08T07:49:09;8.00;;;5.35;;
66425;SDS011;53237;46.158;14.604;2024-03-08T07:51:36;7.68;;;5.20;;
66425;SDS011;53237;46.158;14.604;2024-03-08T07:54:02;11.27;;;7.22;;
66425;SDS011;53237;46.158;14.604;2024-03-08T07:56:29;8.23;;;5.47;;
66425;SDS011;53237;46.158;14.604;2024-03-08T07:58:55;8.23;;;5.05;;
66425;SDS011;53237;46.158;14.604;2024-03-08T08:01:21;9.80;;;6.90;;
66425;SDS011;53237;46.158;14.604;2024-03-08T08:03:47;13.32;;;8.10;;
66425;SDS011;53237;46.158;14.604;2024-03-08T08:06:17;10.20;;;5.53;;
66425;SDS011;53237;46.158;14.604;2024-03-08T08:08:43;10.23;;;5.85;;
66425;SDS011;53237;46.158;14.604;2024-03-08T08:11:09;15.50;;;7.45;;
66425;SDS011;53237;46.158;14.604;2024-03-08T08:13:36;8.40;;;5.15;;
66425;SDS011;53237;46.158;14.604;2024-03-08T08:16:03;9.25;;;5.90;;
66425;SDS011;53237;46.158;14.604;2024-03-08T08:18:30;8.10;;;5.50;;
66425;SDS011;53237;46.158;14.604;2024-03-08T08:20:58;8.18;;;5.35;;
66425;SDS011;53237;46.158;14.604;2024-03-08T08:23:25;8.00;;;4.82;;
66425;SDS011;53237;46.158;14.604;2024-03-08T08:25:51;11.38;;;7.03;;
66425;SDS011;53237;46.158;14.604;2024-03-08T08:28:17;7.90;;;5.20;;
66425;SDS011;53237;46.158;14.604;2024-03-08T08:30:44;12.18;;;7.78;;
66425;SDS011;53237;46.158;14.604;2024-03-08T08:33:10;11.77;;;6.78;;
66425;SDS011;53237;46.158;14.604;2024-03-08T08:35:36;7.93;;;5.50;;
66425;SDS011;53237;46.158;14.604;2024-03-08T08:38:03;11.20;;;6.50;;
66425;SDS011;53237;46.158;14.604;2024-03-08T08:40:29;9.43;;;5.97;;
66425;SDS011;53237;46.158;14.604;2024-03-08T08:42:58;7.47;;;5.18;;
66425;SDS011;53237;46.158;14.604;2024-03-08T08:45:24;9.82;;;6.38;;
66425;SDS011;53237;46.158;14.604;2024-03-08T08:47:51;9.77;;;5.15;;
66425;SDS011;53237;46.158;14.604;2024-03-08T08:50:17;6.72;;;5.40;;
66425;SDS011;53237;46.158;14.604;2024-03-08T08:52:48;10.13;;;5.90;;
66425;SDS011;53237;46.158;14.604;2024-03-08T08:55:14;8.35;;;5.65;;
66425;SDS011;53237;46.158;14.604;2024-03-08T08:57:40;9.30;;;5.65;;
66425;SDS011;53237;46.158;14.604;2024-03-08T09:00:07;10.95;;;7.57;;
66425;SDS011;53237;46.158;14.604;2024-03-08T09:02:35;11.68;;;8.35;;
66425;SDS011;53237;46.158;14.604;2024-03-08T09:05:02;8.55;;;5.95;;
66425;SDS011;53237;46.158;14.604;2024-03-08T09:07:29;9.05;;;6.07;;
66425;SDS011;53237;46.158;14.604;2024-03-08T09:09:55;9.63;;;6.00;;
66425;SDS011;53237;46.158;14.604;2024-03-08T09:12:23;9.85;;;5.95;;
66425;SDS011;53237;46.158;14.604;2024-03-08T09:14:49;11.57;;;6.35;;
66425;SDS011;53237;46.158;14.604;2024-03-08T09:17:15;8.52;;;5.75;;
66425;SDS011;53237;46.158;14.604;2024-03-08T09:19:48;10.07;;;6.25;;
66425;SDS011;53237;46.158;14.604;2024-03-08T09:22:15;9.43;;;5.72;;
66425;SDS011;53237;46.158;14.604;2024-03-08T09:24:41;10.40;;;6.45;;
66425;SDS011;53237;46.158;14.604;2024-03-08T09:27:10;10.25;;;6.50;;
66425;SDS011;53237;46.158;14.604;2024-03-08T09:29:36;14.45;;;9.23;;
66425;SDS011;53237;46.158;14.604;2024-03-08T09:32:02;13.48;;;8.98;;
66425;SDS011;53237;46.158;14.604;2024-03-08T09:34:29;12.50;;;8.05;;
66425;SDS011;53237;46.158;14.604;2024-03-08T09:36:55;11.30;;;6.78;;
66425;SDS011;53237;46.158;14.604;2024-03-08T09:39:21;10.80;;;6.53;;
66425;SDS011;53237;46.158;14.604;2024-03-08T09:41:48;13.43;;;7.82;;
66425;SDS011;53237;46.158;14.604;2024-03-08T09:44:14;10.68;;;7.40;;
66425;SDS011;53237;46.158;14.604;2024-03-08T09:46:40;13.10;;;8.35;;
66425;SDS011;53237;46.158;14.604;2024-03-08T09:49:06;10.85;;;7.30;;
66425;SDS011;53237;46.158;14.604;2024-03-08T09:51:33;12.57;;;7.68;;
66425;SDS011;53237;46.158;14.604;2024-03-08T09:54:01;14.07;;;8.60;;
66425;SDS011;53237;46.158;14.604;2024-03-08T09:56:29;13.30;;;8.65;;
66425;SDS011;53237;46.158;14.604;2024-03-08T09:59:01;12.95;;;7.97;;
66425;SDS011;53237;46.158;14.604;2024-03-08T10:01:36;10.65;;;6.82;;
66425;SDS011;53237;46.158;14.604;2024-03-08T10:04:04;12.20;;;7.43;;
66425;SDS011;53237;46.158;14.604;2024-03-08T10:06:30;10.55;;;7.38;;
66425;SDS011;53237;46.158;14.604;2024-03-08T10:08:57;11.65;;;7.50;;
66425;SDS011;53237;46.158;14.604;2024-03-08T10:11:24;12.48;;;7.28;;
66425;SDS011;53237;46.158;14.604;2024-03-08T10:13:51;11.75;;;7.82;;
66425;SDS011;53237;46.158;14.604;2024-03-08T10:16:18;11.15;;;7.63;;
66425;SDS011;53237;46.158;14.604;2024-03-08T10:18:47;14.30;;;8.13;;
66425;SDS011;53237;46.158;14.604;2024-03-08T10:21:13;16.02;;;10.40;;
66425;SDS011;53237;46.158;14.604;2024-03-08T10:23:40;18.13;;;10.10;;
66425;SDS011;53237;46.158;14.604;2024-03-08T10:26:11;12.27;;;8.18;;
66425;SDS011;53237;46.158;14.604;2024-03-08T10:28:43;11.93;;;8.07;;
66425;SDS011;53237;46.158;14.604;2024-03-08T10:31:09;15.75;;;8.88;;
66425;SDS011;53237;46.158;14.604;2024-03-08T10:33:36;13.63;;;8.65;;
66425;SDS011;53237;46.158;14.604;2024-03-08T10:36:06;12.90;;;7.78;;
66425;SDS011;53237;46.158;14.604;2024-03-08T10:38:34;11.27;;;7.25;;
66425;SDS011;53237;46.158;14.604;2024-03-08T10:41:01;10.35;;;7.10;;
66425;SDS011;53237;46.158;14.604;2024-03-08T10:43:31;11.57;;;7.10;;
66425;SDS011;53237;46.158;14.604;2024-03-08T10:46:09;12.25;;;8.13;;
66425;SDS011;53237;46.158;14.604;2024-03-08T10:48:41;10.60;;;7.38;;
66425;SDS011;53237;46.158;14.604;2024-03-08T10:51:08;13.48;;;8.23;;
66425;SDS011;53237;46.158;14.604;2024-03-08T10:53:36;11.82;;;8.15;;
66425;SDS011;53237;46.158;14.604;2024-03-08T10:56:06;12.80;;;7.40;;
66425;SDS011;53237;46.158;14.604;2024-03-08T10:58:34;8.70;;;6.68;;
66425;SDS011;53237;46.158;14.604;2024-03-08T11:01:01;13.07;;;8.00;;
66425;SDS011;53237;46.158;14.604;2024-03-08T11:06:22;11.45;;;7.07;;
66425;SDS011;53237;46.158;14.604;2024-03-08T11:08:49;11.68;;;6.88;;
66425;SDS011;53237;46.158;14.604;2024-03-08T11:11:23;12.25;;;7.38;;
66425;SDS011;53237;46.158;14.604;2024-03-08T11:13:53;10.35;;;6.82;;
66425;SDS011;53237;46.158;14.604;2024-03-08T11:19:06;11.27;;;7.45;;
66425;SDS011;53237;46.158;14.604;2024-03-08T11:21:35;14.32;;;8.60;;
66425;SDS011;53237;46.158;14.604;2024-03-08T11:24:13;14.30;;;8.13;;
66425;SDS011;53237;46.158;14.604;2024-03-08T11:26:41;17.73;;;8.93;;
66425;SDS011;53237;46.158;14.604;2024-03-08T11:31:52;14.23;;;8.30;;
66425;SDS011;53237;46.158;14.604;2024-03-08T11:34:19;14.05;;;7.93;;
66425;SDS011;53237;46.158;14.604;2024-03-08T11:36:47;10.73;;;7.00;;
66425;SDS011;53237;46.158;14.604;2024-03-08T11:39:14;11.57;;;7.80;;
66425;SDS011;53237;46.158;14.604;2024-03-08T11:41:40;10.85;;;7.07;;
66425;SDS011;53237;46.158;14.604;2024-03-08T11:44:11;11.13;;;6.55;;
66425;SDS011;53237;46.158;14.604;2024-03-08T11:46:41;14.10;;;7.80;;
66425;SDS011;53237;46.158;14.604;2024-03-08T11:49:11;11.25;;;6.93;;
66425;SDS011;53237;46.158;14.604;2024-03-08T11:51:37;10.82;;;7.22;;
66425;SDS011;53237;46.158;14.604;2024-03-08T11:54:03;10.38;;;7.03;;
66425;SDS011;53237;46.158;14.604;2024-03-08T11:56:31;11.55;;;7.55;;
66425;SDS011;53237;46.158;14.604;2024-03-08T11:58:57;9.95;;;6.90;;
66425;SDS011;53237;46.158;14.604;2024-03-08T12:01:23;13.10;;;7.30;;
66425;SDS011;53237;46.158;14.604;2024-03-08T12:03:56;12.00;;;7.05;;
66425;SDS011;53237;46.158;14.604;2024-03-08T12:06:26;13.65;;;8.27;;
66425;SDS011;53237;46.158;14.604;2024-03-08T12:08:52;12.35;;;7.93;;
66425;SDS011;53237;46.158;14.604;2024-03-08T12:11:18;10.30;;;7.15;;
66425;SDS011;53237;46.158;14.604;2024-03-08T12:13:47;13.68;;;8.48;;
66425;SDS011;53237;46.158;14.604;2024-03-08T12:16:15;12.75;;;8.02;;
66425;SDS011;53237;46.158;14.604;2024-03-08T12:18:43;12.90;;;7.63;;
66425;SDS011;53237;46.158;14.604;2024-03-08T12:21:10;12.10;;;7.47;;
66425;SDS011;53237;46.158;14.604;2024-03-08T12:23:37;11.77;;;7.47;;
66425;SDS011;53237;46.158;14.604;2024-03-08T12:26:11;13.95;;;7.88;;
66425;SDS011;53237;46.158;14.604;2024-03-08T12:28:40;12.90;;;7.97;;
66425;SDS011;53237;46.158;14.604;2024-03-08T12:31:07;11.90;;;7.53;;
66425;SDS011;53237;46.158;14.604;2024-03-08T12:33:37;12.68;;;7.47;;
66425;SDS011;53237;46.158;14.604;2024-03-08T12:36:03;12.60;;;6.65;;
66425;SDS011;53237;46.158;14.604;2024-03-08T12:38:32;12.55;;;7.82;;
66425;SDS011;53237;46.158;14.604;2024-03-08T12:41:00;11.57;;;7.28;;
66425;SDS011;53237;46.158;14.604;2024-03-08T12:43:26;12.93;;;7.63;;
66425;SDS011;53237;46.158;14.604;2024-03-08T12:45:55;9.95;;;7.00;;
66425;SDS011;53237;46.158;14.604;2024-03-08T12:48:21;10.55;;;7.00;;
66425;SDS011;53237;46.158;14.604;2024-03-08T12:50:47;11.75;;;7.18;;
66425;SDS011;53237;46.158;14.604;2024-03-08T12:53:13;13.02;;;7.38;;
66425;SDS011;53237;46.158;14.604;2024-03-08T12:55:39;12.35;;;7.60;;
66425;SDS011;53237;46.158;14.604;2024-03-08T12:58:05;14.38;;;7.63;;
66425;SDS011;53237;46.158;14.604;2024-03-08T13:00:35;10.73;;;6.60;;
66425;SDS011;53237;46.158;14.604;2024-03-08T13:03:08;10.52;;;7.15;;
66425;SDS011;53237;46.158;14.604;2024-03-08T13:05:35;10.02;;;6.28;;
66425;SDS011;53237;46.158;14.604;2024-03-08T13:08:05;11.07;;;6.85;;
66425;SDS011;53237;46.158;14.604;2024-03-08T13:10:31;9.90;;;6.78;;
66425;SDS011;53237;46.158;14.604;2024-03-08T13:12:57;14.05;;;7.85;;
66425;SDS011;53237;46.158;14.604;2024-03-08T13:15:23;10.85;;;7.28;;
66425;SDS011;53237;46.158;14.604;2024-03-08T13:17:49;10.82;;;7.10;;
66425;SDS011;53237;46.158;14.604;2024-03-08T13:20:15;11.48;;;7.78;;
66425;SDS011;53237;46.158;14.604;2024-03-08T13:22:44;10.40;;;6.75;;
66425;SDS011;53237;46.158;14.604;2024-03-08T13:25:12;11.40;;;7.15;;
66425;SDS011;53237;46.158;14.604;2024-03-08T13:27:39;11.95;;;7.35;;
66425;SDS011;53237;46.158;14.604;2024-03-08T13:30:06;13.07;;;7.43;;
66425;SDS011;53237;46.158;14.604;2024-03-08T13:32:33;10.93;;;7.32;;
66425;SDS011;53237;46.158;14.604;2024-03-08T13:34:59;11.52;;;7.53;;
66425;SDS011;53237;46.158;14.604;2024-03-08T13:37:25;11.02;;;6.90;;
66425;SDS011;53237;46.158;14.604;2024-03-08T13:39:51;9.65;;;6.93;;
66425;SDS011;53237;46.158;14.604;2024-03-08T13:42:18;10.68;;;6.63;;
66425;SDS011;53237;46.158;14.604;2024-03-08T13:44:45;11.50;;;6.60;;
66425;SDS011;53237;46.158;14.604;2024-03-08T13:47:14;10.15;;;7.18;;
66425;SDS011;53237;46.158;14.604;2024-03-08T13:49:41;11.15;;;6.93;;
66425;SDS011;53237;46.158;14.604;2024-03-08T13:52:08;11.38;;;7.90;;
66425;SDS011;53237;46.158;14.604;2024-03-08T13:54:35;11.00;;;7.22;;
66425;SDS011;53237;46.158;14.604;2024-03-08T13:57:01;10.57;;;6.35;;
66425;SDS011;53237;46.158;14.604;2024-03-08T13:59:32;9.20;;;6.70;;
66425;SDS011;53237;46.158;14.604;2024-03-08T14:02:01;12.25;;;7.57;;
66425;SDS011;53237;46.158;14.604;2024-03-08T14:04:28;9.52;;;6.40;;
66425;SDS011;53237;46.158;14.604;2024-03-08T14:06:54;12.05;;;8.60;;
66425;SDS011;53237;46.158;14.604;2024-03-08T14:09:24;11.27;;;7.65;;
66425;SDS011;53237;46.158;14.604;2024-03-08T14:11:54;11.45;;;7.40;;
66425;SDS011;53237;46.158;14.604;2024-03-08T14:14:20;11.50;;;7.30;;
66425;SDS011;53237;46.158;14.604;2024-03-08T14:16:48;11.50;;;7.70;;
66425;SDS011;53237;46.158;14.604;2024-03-08T14:19:14;13.98;;;7.43;;
66425;SDS011;53237;46.158;14.604;2024-03-08T14:21:40;10.93;;;7.20;;
66425;SDS011;53237;46.158;14.604;2024-03-08T14:24:07;11.35;;;8.27;;
66425;SDS011;53237;46.158;14.604;2024-03-08T14:26:33;18.35;;;10.63;;
66425;SDS011;53237;46.158;14.604;2024-03-08T14:28:59;11.48;;;8.15;;
66425;SDS011;53237;46.158;14.604;2024-03-08T14:31:26;15.65;;;9.10;;
66425;SDS011;53237;46.158;14.604;2024-03-08T14:33:53;11.65;;;7.40;;
66425;SDS011;53237;46.158;14.604;2024-03-08T14:36:19;11.15;;;7.47;;